createdAt,value
2019-05-01T00:00:33.690Z,22.20
2019-05-01T00:03:19.971Z,21.70
2019-05-01T00:05:53.086Z,19.50
2019-05-01T00:08:22.616Z,21.43
2019-05-01T00:10:52.199Z,22.50
2019-05-01T00:13:21.803Z,22.00
2019-05-01T00:15:51.697Z,20.00
2019-05-01T00:18:21.299Z,22.43
2019-05-01T00:20:50.819Z,21.20
2019-05-01T00:23:20.371Z,18.97
2019-05-01T00:25:49.871Z,19.93
2019-05-01T00:28:19.391Z,20.50
2019-05-01T00:30:49.870Z,22.10
2019-05-01T00:33:19.412Z,22.20
2019-05-01T00:35:48.913Z,20.77
2019-05-01T00:38:18.449Z,20.90
2019-05-01T00:40:47.957Z,20.93
2019-05-01T00:43:17.502Z,21.40
2019-05-01T00:45:47.018Z,21.30
2019-05-01T00:48:16.697Z,18.27
2019-05-01T00:50:46.858Z,19.15
2019-05-01T00:53:16.842Z,20.23
2019-05-01T00:56:06.066Z,20.90
2019-05-01T00:58:46.951Z,19.50
2019-05-01T01:01:41.811Z,17.02
2019-05-01T01:04:13.917Z,19.27
2019-05-01T01:06:43.538Z,21.20
2019-05-01T01:09:13.744Z,19.90
2019-05-01T01:11:43.260Z,20.10
2019-05-01T01:14:12.892Z,19.73
2019-05-01T01:16:42.417Z,18.80
2019-05-01T01:19:11.948Z,21.27
2019-05-01T01:21:41.634Z,23.53
2019-05-01T01:24:11.226Z,20.83
2019-05-01T01:26:40.825Z,20.00
2019-05-01T01:29:10.605Z,22.53
2019-05-01T01:31:40.304Z,19.80
2019-05-01T01:34:09.916Z,23.57
2019-05-01T01:36:39.418Z,20.77
2019-05-01T01:39:09.006Z,20.30
2019-05-01T01:41:38.593Z,20.93
2019-05-01T01:44:26.638Z,22.73
2019-05-01T01:46:57.544Z,21.30
2019-05-01T01:49:28.122Z,20.47
2019-05-01T01:51:57.727Z,20.75
2019-05-01T01:54:27.265Z,23.22
2019-05-01T01:56:56.955Z,22.60
2019-05-01T01:59:26.969Z,21.70
2019-05-01T02:02:18.622Z,21.23
2019-05-01T02:05:04.963Z,21.10
2019-05-01T02:07:34.647Z,19.57
2019-05-01T02:10:05.713Z,20.08
2019-05-01T02:12:35.906Z,24.00
2019-05-01T02:15:06.344Z,19.50
2019-05-01T02:17:35.926Z,21.43
2019-05-01T02:20:07.174Z,20.00
2019-05-01T02:22:36.784Z,19.60
2019-05-01T02:25:08.905Z,20.20
2019-05-01T02:27:44.651Z,21.13
2019-05-01T02:30:16.337Z,20.60
2019-05-01T02:32:46.851Z,19.53
2019-05-01T02:35:16.580Z,22.62
2019-05-01T02:37:46.934Z,22.07
2019-05-01T02:40:49.580Z,22.58
2019-05-01T02:43:19.520Z,19.20
2019-05-01T02:45:54.852Z,21.70
2019-05-01T02:48:25.348Z,20.88
2019-05-01T02:50:57.892Z,24.43
2019-05-01T02:53:27.802Z,22.55
2019-05-01T02:56:18.495Z,22.42
2019-05-01T02:58:49.732Z,20.53
2019-05-01T03:01:19.337Z,22.77
2019-05-01T03:03:49.732Z,21.63
2019-05-01T03:06:19.763Z,24.60
2019-05-01T03:08:49.349Z,22.30
2019-05-01T03:11:18.957Z,21.10
2019-05-01T03:13:49.144Z,20.57
2019-05-01T03:16:19.403Z,20.77
2019-05-01T03:18:52.142Z,23.33
2019-05-01T03:21:26.428Z,25.07
2019-05-01T03:24:00.560Z,28.37
2019-05-01T03:26:30.686Z,27.52
2019-05-01T03:29:00.383Z,28.43
2019-05-01T03:31:30.073Z,26.27
2019-05-01T03:33:59.694Z,30.43
2019-05-01T03:36:29.317Z,28.77
2019-05-01T03:38:58.816Z,29.33
2019-05-01T03:41:28.701Z,28.57
2019-05-01T03:43:58.407Z,29.85
2019-05-01T03:46:28.237Z,30.80
2019-05-01T03:48:57.983Z,27.03
2019-05-01T03:51:27.660Z,30.40
2019-05-01T03:53:57.594Z,30.27
2019-05-01T03:56:27.953Z,30.07
2019-05-01T03:58:57.540Z,27.25
2019-05-01T04:01:52.353Z,29.00
2019-05-01T04:04:24.593Z,28.60
2019-05-01T04:06:54.147Z,26.05
2019-05-01T04:09:24.038Z,26.20
2019-05-01T04:11:53.613Z,22.83
2019-05-01T04:14:23.199Z,22.00
2019-05-01T04:16:59.315Z,22.67
2019-05-01T04:19:28.936Z,20.80
2019-05-01T04:22:06.777Z,21.40
2019-05-01T04:24:36.652Z,17.80
2019-05-01T04:27:07.886Z,20.30
2019-05-01T04:29:44.549Z,18.60
2019-05-01T04:32:21.402Z,19.57
2019-05-01T04:35:17.032Z,18.80
2019-05-01T04:37:46.648Z,18.50
2019-05-01T04:40:18.731Z,17.73
2019-05-01T04:42:48.504Z,17.02
2019-05-01T04:45:18.647Z,17.62
2019-05-01T04:47:48.510Z,17.48
2019-05-01T04:50:18.456Z,16.00
2019-05-01T04:52:48.526Z,17.90
2019-05-01T04:55:18.467Z,14.73
2019-05-01T04:57:49.072Z,15.40
2019-05-01T05:00:18.810Z,16.57
2019-05-01T05:03:04.890Z,14.23
2019-05-01T05:05:32.579Z,14.10
2019-05-01T05:08:02.847Z,15.47
2019-05-01T05:10:33.396Z,15.00
2019-05-01T05:13:15.490Z,13.00
2019-05-01T05:16:06.889Z,13.23
2019-05-01T05:18:36.659Z,14.00
2019-05-01T05:21:06.743Z,14.77
2019-05-01T05:23:36.656Z,16.27
2019-05-01T05:26:06.345Z,15.07
2019-05-01T05:28:36.636Z,14.45
2019-05-01T05:31:07.027Z,14.00
2019-05-01T05:33:36.964Z,14.93
2019-05-01T05:36:07.837Z,15.32
2019-05-01T05:38:47.726Z,13.48
2019-05-01T05:41:18.593Z,15.57
2019-05-01T05:43:49.192Z,14.35
2019-05-01T05:46:19.196Z,14.07
2019-05-01T05:48:48.995Z,13.03
2019-05-01T05:51:30.197Z,14.18
2019-05-01T05:54:05.508Z,14.80
2019-05-01T05:56:42.959Z,14.20
2019-05-01T05:59:18.329Z,15.60
2019-05-01T06:01:57.764Z,14.23
2019-05-01T06:04:42.313Z,15.75
2019-05-01T06:07:24.604Z,13.30
2019-05-01T06:10:10.240Z,15.03
2019-05-01T06:13:09.130Z,14.80
2019-05-01T06:15:54.670Z,15.00
2019-05-01T06:18:39.286Z,13.27
2019-05-01T06:21:20.255Z,13.03
2019-05-01T06:24:06.382Z,14.93
2019-05-01T06:26:39.406Z,14.63
2019-05-01T06:29:07.553Z,14.67
2019-05-01T06:31:37.315Z,13.27
2019-05-01T06:34:06.898Z,14.15
2019-05-01T06:36:36.461Z,14.13
2019-05-01T06:39:11.765Z,14.33
2019-05-01T06:41:43.749Z,13.90
2019-05-01T06:44:22.707Z,14.23
2019-05-01T06:47:07.743Z,13.87
2019-05-01T06:50:05.948Z,13.87
2019-05-01T06:52:36.982Z,13.10
2019-05-01T06:55:07.160Z,15.98
2019-05-01T06:57:38.345Z,13.08
2019-05-01T07:00:13.202Z,13.68
2019-05-01T07:02:43.528Z,14.50
2019-05-01T07:05:14.539Z,16.02
2019-05-01T07:07:48.236Z,14.43
2019-05-01T07:10:29.511Z,15.57
2019-05-01T07:12:48.706Z,14.65
2019-05-01T07:15:21.889Z,14.93
2019-05-01T07:17:50.820Z,16.27
2019-05-01T07:20:47.286Z,15.80
2019-05-01T07:23:18.696Z,14.10
2019-05-01T07:25:49.595Z,14.65
2019-05-01T07:28:19.299Z,14.40
2019-05-01T07:30:56.214Z,15.25
2019-05-01T07:33:25.864Z,15.10
2019-05-01T07:35:55.705Z,14.00
2019-05-01T07:38:25.202Z,14.60
2019-05-01T07:40:58.787Z,16.27
2019-05-01T07:43:46.560Z,15.15
2019-05-01T07:46:34.127Z,16.80
2019-05-01T07:49:03.803Z,13.70
2019-05-01T07:51:33.341Z,12.70
2019-05-01T07:54:04.063Z,13.97
2019-05-01T07:56:34.647Z,14.50
2019-05-01T07:59:04.877Z,15.60
2019-05-01T08:01:57.188Z,14.10
2019-05-01T08:04:35.736Z,10.73
2019-05-01T08:06:58.780Z,12.63
2019-05-01T08:09:28.395Z,12.67
2019-05-01T08:11:59.352Z,13.60
2019-05-01T08:14:28.850Z,12.73
2019-05-01T08:16:59.020Z,12.75
2019-05-01T08:19:48.659Z,10.15
2019-05-01T08:22:21.283Z,13.27
2019-05-01T08:24:53.868Z,11.67
2019-05-01T08:27:28.932Z,14.00
2019-05-01T08:30:05.426Z,13.88
2019-05-01T08:32:43.365Z,14.07
2019-05-01T08:35:15.203Z,13.07
2019-05-01T08:37:44.793Z,12.77
2019-05-01T08:40:15.933Z,13.17
2019-05-01T08:42:45.651Z,14.18
2019-05-01T08:45:35.926Z,13.07
2019-05-01T08:48:12.703Z,12.70
2019-05-01T08:50:42.210Z,14.07
2019-05-01T08:53:11.860Z,13.35
2019-05-01T08:55:45.163Z,14.93
2019-05-01T08:58:14.152Z,14.27
2019-05-01T09:00:43.918Z,15.30
2019-05-01T09:03:18.437Z,14.80
2019-05-01T09:05:45.114Z,15.30
2019-05-01T09:08:14.637Z,15.20
2019-05-01T09:10:44.177Z,19.30
2019-05-01T09:13:13.940Z,43.87
2019-05-01T09:15:43.760Z,32.60
2019-05-01T09:18:14.680Z,17.90
2019-05-01T09:20:45.928Z,18.30
2019-05-01T09:23:16.189Z,18.35
2019-05-01T09:26:12.658Z,16.90
2019-05-01T09:28:41.018Z,16.83
2019-05-01T09:31:12.598Z,18.03
2019-05-01T09:33:42.430Z,15.93
2019-05-01T09:36:12.027Z,14.57
2019-05-01T09:38:41.653Z,15.63
2019-05-01T09:41:11.271Z,14.53
2019-05-01T09:43:40.895Z,16.20
2019-05-01T09:46:10.748Z,14.25
2019-05-01T09:48:40.556Z,14.78
2019-05-01T09:51:34.222Z,15.83
2019-05-01T09:54:31.997Z,14.27
2019-05-01T09:57:02.307Z,14.27
2019-05-01T09:59:31.952Z,13.63
2019-05-01T10:02:02.939Z,13.47
2019-05-01T10:04:32.888Z,15.40
2019-05-01T10:07:02.451Z,14.30
2019-05-01T10:09:31.951Z,14.00
2019-05-01T10:12:01.447Z,13.62
2019-05-01T10:14:31.683Z,14.50
2019-05-01T10:17:02.989Z,13.80
2019-05-01T10:19:32.518Z,12.33
2019-05-01T10:22:03.799Z,12.67
2019-05-01T10:24:37.649Z,12.33
2019-05-01T10:27:07.539Z,14.10
2019-05-01T10:30:01.561Z,12.80
2019-05-01T10:32:37.758Z,11.57
2019-05-01T10:35:19.087Z,13.07
2019-05-01T10:37:49.227Z,12.28
2019-05-01T10:40:18.871Z,12.10
2019-05-01T10:42:48.661Z,13.80
2019-05-01T10:45:18.275Z,13.70
2019-05-01T10:47:48.169Z,11.22
2019-05-01T10:50:17.814Z,11.80
2019-05-01T10:52:47.289Z,13.40
2019-05-01T10:55:16.893Z,14.00
2019-05-01T10:57:46.391Z,11.30
2019-05-01T11:00:16.650Z,12.00
2019-05-01T11:02:46.168Z,12.00
2019-05-01T11:05:18.773Z,14.33
2019-05-01T11:07:48.454Z,13.57
2019-05-01T11:10:18.384Z,12.15
2019-05-01T11:12:48.027Z,12.07
2019-05-01T11:15:18.891Z,14.30
2019-05-01T11:17:48.387Z,12.90
2019-05-01T11:20:17.927Z,12.77
2019-05-01T11:22:47.525Z,13.07
2019-05-01T11:25:18.866Z,11.38
2019-05-01T11:27:48.629Z,12.50
2019-05-01T11:30:18.949Z,12.53
2019-05-01T11:32:55.462Z,12.67
2019-05-01T11:35:50.189Z,12.07
2019-05-01T11:38:30.865Z,12.10
2019-05-01T11:41:03.963Z,13.40
2019-05-01T11:43:33.824Z,13.08
2019-05-01T11:46:03.907Z,14.80
2019-05-01T11:48:33.465Z,14.15
2019-05-01T11:51:03.578Z,12.60
2019-05-01T11:53:33.355Z,15.45
2019-05-01T11:56:03.066Z,14.37
2019-05-01T11:58:32.570Z,14.10
2019-05-01T12:01:03.610Z,14.27
2019-05-01T12:03:33.131Z,15.53
2019-05-01T12:06:02.782Z,14.30
2019-05-01T12:08:32.376Z,17.30
2019-05-01T12:11:02.477Z,15.28
2019-05-01T12:13:43.234Z,13.60
2019-05-01T12:16:11.956Z,13.67
2019-05-01T12:18:41.494Z,13.70
2019-05-01T12:21:11.047Z,13.48
2019-05-01T12:23:40.705Z,14.00
2019-05-01T12:26:10.320Z,15.20
2019-05-01T12:28:40.374Z,14.78
2019-05-01T12:31:10.292Z,13.55
2019-05-01T12:33:40.209Z,12.18
2019-05-01T12:36:10.327Z,13.08
2019-05-01T12:38:40.333Z,15.05
2019-05-01T12:41:23.713Z,12.33
2019-05-01T12:43:53.606Z,14.00
2019-05-01T12:46:41.851Z,13.67
2019-05-01T12:49:12.059Z,12.10
2019-05-01T12:51:43.711Z,12.90
2019-05-01T12:54:24.997Z,14.15
2019-05-01T12:56:56.281Z,13.70
2019-05-01T12:59:25.819Z,12.63
2019-05-01T13:01:55.359Z,13.13
2019-05-01T13:04:25.219Z,12.23
2019-05-01T13:06:56.844Z,14.23
2019-05-01T13:09:26.431Z,12.13
2019-05-01T13:11:56.629Z,12.28
2019-05-01T13:14:26.166Z,13.68
2019-05-01T13:16:55.805Z,12.15
2019-05-01T13:19:25.334Z,13.00
2019-05-01T13:21:55.295Z,13.30
2019-05-01T13:24:25.014Z,12.20
2019-05-01T13:27:11.553Z,12.70
2019-05-01T13:29:45.889Z,14.03
2019-05-01T13:32:30.135Z,13.03
2019-05-01T13:34:59.674Z,13.33
2019-05-01T13:37:29.424Z,12.68
2019-05-01T13:40:00.629Z,12.13
2019-05-01T13:42:30.338Z,11.95
2019-05-01T13:45:00.055Z,13.80
2019-05-01T13:47:29.751Z,12.33
2019-05-01T13:49:59.412Z,11.95
2019-05-01T13:52:29.157Z,13.03
2019-05-01T13:54:59.136Z,11.70
2019-05-01T13:57:28.724Z,12.20
2019-05-01T13:59:58.413Z,11.73
2019-05-01T14:02:28.073Z,11.90
2019-05-01T14:05:06.612Z,11.83
2019-05-01T14:07:37.043Z,11.13
2019-05-01T14:10:08.178Z,13.85
2019-05-01T14:12:41.298Z,13.60
2019-05-01T14:15:10.929Z,13.20
2019-05-01T14:17:40.526Z,13.00
2019-05-01T14:20:19.766Z,12.73
2019-05-01T14:22:57.439Z,11.20
2019-05-01T14:25:28.716Z,12.47
2019-05-01T14:27:58.725Z,13.30
2019-05-01T14:30:29.826Z,13.17
2019-05-01T14:32:59.601Z,14.87
2019-05-01T14:35:29.575Z,12.90
2019-05-01T14:37:59.828Z,11.53
2019-05-01T14:40:29.657Z,13.78
2019-05-01T14:42:59.666Z,11.57
2019-05-01T14:45:30.394Z,12.40
2019-05-01T14:48:00.029Z,13.13
2019-05-01T14:50:29.639Z,13.17
2019-05-01T14:52:59.271Z,11.90
2019-05-01T14:55:28.790Z,12.90
2019-05-01T14:57:58.419Z,13.08
2019-05-01T15:00:28.011Z,12.17
2019-05-01T15:02:57.829Z,12.70
2019-05-01T15:05:27.420Z,15.57
2019-05-01T15:07:57.022Z,13.08
2019-05-01T15:10:26.661Z,12.60
2019-05-01T15:12:58.035Z,14.35
2019-05-01T15:16:01.788Z,13.22
2019-05-01T15:18:50.543Z,14.60
2019-05-01T15:21:20.059Z,13.50
2019-05-01T15:23:53.672Z,14.85
2019-05-01T15:26:21.507Z,14.93
2019-05-01T15:28:51.889Z,14.00
2019-05-01T15:31:21.748Z,14.80
2019-05-01T15:33:51.293Z,13.83
2019-05-01T15:36:22.180Z,15.17
2019-05-01T15:38:51.769Z,13.60
2019-05-01T15:41:43.482Z,14.73
2019-05-01T15:44:21.025Z,15.23
2019-05-01T15:46:51.162Z,12.80
2019-05-01T15:49:21.782Z,13.68
2019-05-01T15:51:52.441Z,14.40
2019-05-01T15:54:23.424Z,14.77
2019-05-01T15:56:54.072Z,15.07
2019-05-01T15:59:24.197Z,14.70
2019-05-01T16:01:53.921Z,14.53
2019-05-01T16:04:23.453Z,15.57
2019-05-01T16:06:53.182Z,14.45
2019-05-01T16:09:22.749Z,13.98
2019-05-01T16:12:11.320Z,14.13
2019-05-01T16:14:48.827Z,13.60
2019-05-01T16:17:19.166Z,15.00
2019-05-01T16:19:50.081Z,15.10
2019-05-01T16:22:20.462Z,15.50
2019-05-01T16:24:50.007Z,16.37
2019-05-01T16:27:19.771Z,16.52
2019-05-01T16:29:49.313Z,14.57
2019-05-01T16:32:18.814Z,14.55
2019-05-01T16:34:48.426Z,15.70
2019-05-01T16:37:17.923Z,13.10
2019-05-01T16:40:03.187Z,13.90
2019-05-01T16:42:37.800Z,14.67
2019-05-01T16:45:09.300Z,14.40
2019-05-01T16:47:38.882Z,15.07
2019-05-01T16:50:09.272Z,16.40
2019-05-01T16:52:39.569Z,16.97
2019-05-01T16:55:09.721Z,14.53
2019-05-01T16:57:39.332Z,17.17
2019-05-01T17:00:11.154Z,13.97
2019-05-01T17:03:03.121Z,15.10
2019-05-01T17:06:04.086Z,15.80
2019-05-01T17:08:44.853Z,15.40
2019-05-01T17:11:14.653Z,14.70
2019-05-01T17:13:44.172Z,16.23
2019-05-01T17:16:13.974Z,15.25
2019-05-01T17:18:43.959Z,14.28
2019-05-01T17:21:13.674Z,17.32
2019-05-01T17:23:45.956Z,16.10
2019-05-01T17:26:15.515Z,13.47
2019-05-01T17:28:45.467Z,15.53
2019-05-01T17:31:15.097Z,14.00
2019-05-01T17:33:45.264Z,16.27
2019-05-01T17:36:14.929Z,16.17
2019-05-01T17:38:49.684Z,13.90
2019-05-01T17:41:15.999Z,13.67
2019-05-01T17:43:49.346Z,13.95
2019-05-01T17:46:16.848Z,14.20
2019-05-01T17:48:46.388Z,14.67
2019-05-01T17:51:15.928Z,13.90
2019-05-01T17:53:45.457Z,15.37
2019-05-01T17:56:17.012Z,14.05
2019-05-01T17:58:46.307Z,13.43
2019-05-01T18:01:27.923Z,14.73
2019-05-01T18:04:31.978Z,13.40
2019-05-01T18:07:02.361Z,11.88
2019-05-01T18:09:32.283Z,13.53
2019-05-01T18:12:02.481Z,13.50
2019-05-01T18:14:32.308Z,14.00
2019-05-01T18:17:03.612Z,13.00
2019-05-01T18:19:33.184Z,13.05
2019-05-01T18:22:12.727Z,13.03
2019-05-01T18:24:58.422Z,12.20
2019-05-01T18:27:45.111Z,11.97
2019-05-01T18:30:20.616Z,13.00
2019-05-01T18:32:52.050Z,12.00
2019-05-01T18:35:19.078Z,12.00
2019-05-01T18:38:11.735Z,13.87
2019-05-01T18:40:44.941Z,11.90
2019-05-01T18:43:14.654Z,11.63
2019-05-01T18:45:53.432Z,12.20
2019-05-01T18:48:23.508Z,11.20
2019-05-01T18:50:55.018Z,12.67
2019-05-01T18:53:24.455Z,11.13
2019-05-01T18:55:54.100Z,12.00
2019-05-01T18:58:23.629Z,11.47
2019-05-01T19:00:53.220Z,11.90
2019-05-01T19:03:22.760Z,12.07
2019-05-01T19:05:52.400Z,11.80
2019-05-01T19:08:22.918Z,13.07
2019-05-01T19:10:52.435Z,13.00
2019-05-01T19:13:22.078Z,12.83
2019-05-01T19:15:51.667Z,12.07
2019-05-01T19:18:21.229Z,12.43
2019-05-01T19:20:59.311Z,12.47
2019-05-01T19:23:27.604Z,13.33
2019-05-01T19:25:56.501Z,13.38
2019-05-01T19:28:25.028Z,12.20
2019-05-01T19:30:56.688Z,12.45
2019-05-01T19:33:25.924Z,12.67
2019-05-01T19:35:55.431Z,12.33
2019-05-01T19:38:29.409Z,12.13
2019-05-01T19:40:56.281Z,13.23
2019-05-01T19:43:25.840Z,12.87
2019-05-01T19:45:55.392Z,12.00
2019-05-01T19:48:24.950Z,12.37
2019-05-01T19:50:54.822Z,13.27
2019-05-01T19:53:24.778Z,12.60
2019-05-01T19:55:54.409Z,11.67
2019-05-01T19:58:23.912Z,12.37
2019-05-01T20:01:04.373Z,12.10
2019-05-01T20:03:36.299Z,11.77
2019-05-01T20:06:08.042Z,12.50
2019-05-01T20:08:37.105Z,11.80
2019-05-01T20:11:09.398Z,11.40
2019-05-01T20:13:38.105Z,11.77
2019-05-01T20:16:08.811Z,11.33
2019-05-01T20:18:38.372Z,12.57
2019-05-01T20:21:07.998Z,12.00
2019-05-01T20:23:37.708Z,12.07
2019-05-01T20:26:07.241Z,11.37
2019-05-01T20:28:37.360Z,11.63
2019-05-01T20:31:07.209Z,11.88
2019-05-01T20:33:38.904Z,13.17
2019-05-01T20:36:08.962Z,13.10
2019-05-01T20:38:38.796Z,11.90
2019-05-01T20:41:10.449Z,12.67
2019-05-01T20:43:43.638Z,12.30
2019-05-01T20:46:11.061Z,14.03
2019-05-01T20:48:42.078Z,11.70
2019-05-01T20:51:12.113Z,12.78
2019-05-01T20:53:42.157Z,12.93
2019-05-01T20:56:31.218Z,13.32
2019-05-01T20:59:03.159Z,11.87
2019-05-01T21:01:33.285Z,13.03
2019-05-01T21:04:19.866Z,11.50
2019-05-01T21:07:08.537Z,13.58
2019-05-01T21:09:47.246Z,12.50
2019-05-01T21:12:11.330Z,12.03
2019-05-01T21:14:45.250Z,12.27
2019-05-01T21:17:13.668Z,13.70
2019-05-01T21:19:44.536Z,11.97
2019-05-01T21:22:14.415Z,13.23
2019-05-01T21:24:44.447Z,11.93
2019-05-01T21:27:14.118Z,12.80
2019-05-01T21:29:44.515Z,11.77
2019-05-01T21:32:18.224Z,11.63
2019-05-01T21:34:45.415Z,12.97
2019-05-01T21:37:15.138Z,13.97
2019-05-01T21:39:44.650Z,11.93
2019-05-01T21:42:15.938Z,11.25
2019-05-01T21:44:45.525Z,12.70
2019-05-01T21:47:15.110Z,11.97
2019-05-01T21:49:44.656Z,11.90
2019-05-01T21:52:17.988Z,10.93
2019-05-01T21:54:45.463Z,13.10
2019-05-01T21:57:17.458Z,11.70
2019-05-01T21:59:48.152Z,11.00
2019-05-01T22:02:17.788Z,11.50
2019-05-01T22:04:48.402Z,12.18
2019-05-01T22:07:18.703Z,10.55
2019-05-01T22:09:50.527Z,11.13
2019-05-01T22:12:22.479Z,10.23
2019-05-01T22:14:57.035Z,10.00
2019-05-01T22:17:41.198Z,10.97
2019-05-01T22:20:12.465Z,11.17
2019-05-01T22:22:49.888Z,12.13
2019-05-01T22:25:23.237Z,13.03
2019-05-01T22:27:58.687Z,10.97
2019-05-01T22:30:35.674Z,11.00
2019-05-01T22:33:05.712Z,12.00
2019-05-01T22:35:38.706Z,10.13
2019-05-01T22:38:08.722Z,10.27
2019-05-01T22:41:06.566Z,11.77
2019-05-01T22:43:33.325Z,11.07
2019-05-01T22:46:06.971Z,11.80
2019-05-01T22:48:37.577Z,11.90
2019-05-01T22:51:13.386Z,10.95
2019-05-01T22:53:43.041Z,10.60
2019-05-01T22:56:12.581Z,12.33
2019-05-01T22:58:42.235Z,12.25
2019-05-01T23:01:13.333Z,12.37
2019-05-01T23:03:47.955Z,11.45
2019-05-01T23:06:18.838Z,11.80
2019-05-01T23:08:48.517Z,12.77
2019-05-01T23:11:20.298Z,12.03
2019-05-01T23:13:50.742Z,12.67
2019-05-01T23:16:21.623Z,12.47
2019-05-01T23:18:52.038Z,10.40
2019-05-01T23:21:22.534Z,11.53
2019-05-01T23:23:52.068Z,10.77
2019-05-01T23:26:21.827Z,11.93
2019-05-01T23:28:51.457Z,12.00
2019-05-01T23:31:23.543Z,11.97
2019-05-01T23:33:53.227Z,12.80
2019-05-01T23:36:24.028Z,11.17
2019-05-01T23:38:53.833Z,11.60
2019-05-01T23:41:44.720Z,12.28
2019-05-01T23:43:58.292Z,11.90
2019-05-01T23:46:25.888Z,12.70
2019-05-01T23:48:55.414Z,13.20
2019-05-01T23:51:28.613Z,12.25
2019-05-01T23:53:56.317Z,10.97
2019-05-01T23:56:26.011Z,12.10
2019-05-01T23:58:55.711Z,13.40
